UAL1004 KIAH-SEQM
Flight info
| Callsign | UAL1004 |
|---|---|
| Flight time | N/A |
| Altitude | 37000 |
| Route | FLYZA5 KELPP A766 KEHLI UL674 RAKAR UL333 ILUBA UN420 TBG UM674 QIT |
| Aircraft | B38M/M-SDE1FGHILORVWXY/HB1 |
Departure
| Time | 2026-05-05 00:37 |
|---|---|
| Airport | George Bush Intercontinental Airport (KIAH) |
Arrival
| Time | N/A |
|---|---|
| Airport | Mariscal Sucre International Airport (SEQM) |
| Time | Latitude | Longitude | Altitude | Speed | Heading |
|---|---|---|---|---|---|
| 2026-05-05 00:36 | 29.82561 | -95.13840 | 9406 ft | 307 kts | 133° |
| 2026-05-05 00:37 | 29.80936 | -95.12240 | 10203 ft | 310 kts | 145° |
| 2026-05-05 00:37 | 29.79183 | -95.10706 | 10754 ft | 324 kts | 144° |
| 2026-05-05 00:37 | 29.77360 | -95.09093 | 11335 ft | 336 kts | 144° |
| 2026-05-05 00:37 | 29.75486 | -95.07475 | 12137 ft | 337 kts | 150° |
| 2026-05-05 00:38 | 29.73344 | -95.06370 | 12827 ft | 339 kts | 163° |
| 2026-05-05 00:38 | 29.71107 | -95.05425 | 13532 ft | 346 kts | 163° |
| 2026-05-05 00:38 | 29.68838 | -95.04456 | 14169 ft | 351 kts | 163° |
| 2026-05-05 00:38 | 29.66526 | -95.03473 | 14797 ft | 356 kts | 163° |
| 2026-05-05 00:39 | 29.64189 | -95.02483 | 15412 ft | 361 kts | 163° |
| 2026-05-05 00:39 | 29.61818 | -95.01479 | 16020 ft | 366 kts | 163° |
| 2026-05-05 00:39 | 29.59414 | -95.00462 | 16615 ft | 371 kts | 164° |
| 2026-05-05 00:39 | 29.57806 | -94.99782 | 17011 ft | 374 kts | 164° |
| 2026-05-05 00:40 | 29.55349 | -94.98743 | 17586 ft | 378 kts | 164° |
| 2026-05-05 00:40 | 29.52862 | -94.97693 | 18173 ft | 383 kts | 164° |
| 2026-05-05 00:40 | 29.50342 | -94.96630 | 18672 ft | 388 kts | 165° |
| 2026-05-05 00:40 | 29.47796 | -94.95556 | 19161 ft | 392 kts | 165° |
| 2026-05-05 00:41 | 29.45229 | -94.94473 | 19675 ft | 395 kts | 165° |
| 2026-05-05 00:41 | 29.42640 | -94.93382 | 20138 ft | 399 kts | 165° |
| 2026-05-05 00:41 | 29.40012 | -94.92274 | 20589 ft | 404 kts | 166° |
| 2026-05-05 00:41 | 29.37364 | -94.91160 | 21072 ft | 407 kts | 166° |
| 2026-05-05 00:42 | 29.34727 | -94.90050 | 21512 ft | 411 kts | 166° |
| 2026-05-05 00:42 | 29.32033 | -94.88917 | 21984 ft | 415 kts | 166° |
| 2026-05-05 00:42 | 29.29313 | -94.87755 | 22424 ft | 420 kts | 163° |
| 2026-05-05 00:42 | 29.26768 | -94.86011 | 22855 ft | 434 kts | 143° |
| 2026-05-05 00:43 | 29.24680 | -94.83474 | 23251 ft | 443 kts | 130° |
| 2026-05-05 00:43 | 29.22748 | -94.80699 | 23604 ft | 448 kts | 131° |
| 2026-05-05 00:43 | 29.20789 | -94.77902 | 23979 ft | 451 kts | 130° |
| 2026-05-05 00:43 | 29.18829 | -94.75087 | 24332 ft | 454 kts | 130° |
| 2026-05-05 00:44 | 29.16855 | -94.72249 | 24688 ft | 457 kts | 130° |
| 2026-05-05 00:44 | 29.14875 | -94.69402 | 25023 ft | 460 kts | 130° |
| 2026-05-05 00:44 | 29.12874 | -94.66527 | 25383 ft | 462 kts | 130° |
| 2026-05-05 00:44 | 29.10864 | -94.63641 | 25717 ft | 465 kts | 130° |
| 2026-05-05 00:45 | 29.08828 | -94.60720 | 25849 ft | 476 kts | 130° |
| 2026-05-05 00:45 | 29.06738 | -94.57724 | 25827 ft | 489 kts | 130° |
| 2026-05-05 00:45 | 29.04597 | -94.54655 | 26005 ft | 495 kts | 130° |
| 2026-05-05 00:45 | 29.02441 | -94.51569 | 26385 ft | 497 kts | 130° |